createdAt,value
2023-03-30T00:00:18.977Z,11.40
2023-03-30T00:02:46.755Z,9.80
2023-03-30T00:05:13.933Z,9.60
2023-03-30T00:07:42.811Z,10.10
2023-03-30T00:10:10.187Z,10.70
2023-03-30T00:12:37.012Z,9.80
2023-03-30T00:15:04.690Z,9.00
2023-03-30T00:17:33.627Z,9.70
2023-03-30T00:20:06.362Z,9.70
2023-03-30T00:22:33.225Z,9.60
2023-03-30T00:25:00.404Z,9.40
2023-03-30T00:27:28.101Z,9.50
2023-03-30T00:29:55.431Z,9.30
2023-03-30T00:32:22.654Z,8.80
2023-03-30T00:34:49.917Z,9.70
2023-03-30T00:37:16.968Z,9.40
2023-03-30T00:39:44.724Z,10.20
2023-03-30T00:42:16.177Z,8.30
2023-03-30T00:45:02.075Z,9.10
2023-03-30T00:47:29.800Z,9.30
2023-03-30T00:49:56.792Z,9.40
2023-03-30T00:52:25.072Z,10.60
2023-03-30T00:54:52.842Z,9.60
2023-03-30T00:57:21.964Z,10.50
2023-03-30T00:59:49.726Z,9.20
2023-03-30T01:02:16.551Z,8.80
2023-03-30T01:04:44.560Z,11.00
2023-03-30T01:07:14.166Z,8.80
2023-03-30T01:09:41.641Z,10.00
2023-03-30T01:12:08.821Z,9.60
2023-03-30T01:14:35.552Z,8.70
2023-03-30T01:17:19.108Z,8.50
2023-03-30T01:20:09.264Z,9.40
2023-03-30T01:22:52.963Z,9.20
2023-03-30T01:25:22.682Z,9.30
2023-03-30T01:28:07.799Z,9.30
2023-03-30T01:30:46.928Z,9.40
2023-03-30T01:33:32.313Z,9.40
2023-03-30T01:36:17.877Z,9.40
2023-03-30T01:38:44.530Z,9.50
2023-03-30T01:41:19.992Z,8.80
2023-03-30T01:43:46.546Z,9.50
2023-03-30T01:46:25.271Z,8.70
2023-03-30T01:48:58.496Z,9.50
2023-03-30T01:51:28.752Z,8.50
2023-03-30T01:53:59.967Z,10.80
2023-03-30T01:56:28.645Z,10.90
2023-03-30T01:58:59.641Z,8.40
2023-03-30T02:01:27.737Z,8.60
2023-03-30T02:03:56.814Z,8.10
2023-03-30T02:06:27.447Z,7.90
2023-03-30T02:08:55.788Z,8.60
2023-03-30T02:11:24.266Z,8.60
2023-03-30T02:13:52.408Z,8.00
2023-03-30T02:16:24.546Z,7.90
2023-03-30T02:18:51.505Z,8.60
2023-03-30T02:21:18.138Z,7.90
2023-03-30T02:23:46.197Z,7.60
2023-03-30T02:26:12.974Z,7.80
2023-03-30T02:28:39.690Z,7.70
2023-03-30T02:31:11.925Z,7.60
2023-03-30T02:33:41.692Z,8.20
2023-03-30T02:36:37.524Z,7.50
2023-03-30T02:39:16.037Z,7.50
2023-03-30T02:41:54.722Z,7.40
2023-03-30T02:44:21.289Z,7.50
2023-03-30T02:46:54.189Z,8.40
2023-03-30T02:49:31.529Z,7.40
2023-03-30T02:52:17.110Z,7.40
2023-03-30T02:55:02.666Z,7.30
2023-03-30T02:57:39.679Z,7.20
2023-03-30T03:00:17.178Z,7.60
2023-03-30T03:02:48.300Z,7.10
2023-03-30T03:05:15.406Z,7.00
2023-03-30T03:07:42.243Z,8.50
2023-03-30T03:10:08.978Z,6.90
2023-03-30T03:12:36.015Z,7.20
2023-03-30T03:15:03.555Z,6.30
2023-03-30T03:17:34.743Z,6.30
2023-03-30T03:20:02.566Z,6.50
2023-03-30T03:22:29.152Z,6.40
2023-03-30T03:24:55.872Z,8.50
2023-03-30T03:27:22.587Z,6.80
2023-03-30T03:29:49.468Z,6.90
2023-03-30T03:32:16.366Z,6.90
2023-03-30T03:34:46.031Z,6.40
2023-03-30T03:37:12.893Z,6.60
2023-03-30T03:39:39.542Z,6.90
2023-03-30T03:42:06.735Z,6.70
2023-03-30T03:44:33.478Z,6.80
2023-03-30T03:47:00.176Z,6.90
2023-03-30T03:49:27.080Z,6.60
2023-03-30T03:51:53.690Z,6.80
2023-03-30T03:54:20.399Z,7.00
2023-03-30T03:56:47.170Z,7.20
2023-03-30T03:59:13.824Z,6.80
2023-03-30T04:01:40.523Z,6.40
2023-03-30T04:04:07.287Z,6.90
2023-03-30T04:06:33.907Z,7.30
2023-03-30T04:09:01.844Z,7.30
2023-03-30T04:11:28.501Z,6.90
2023-03-30T04:13:55.205Z,7.40
2023-03-30T04:16:21.867Z,7.40
2023-03-30T04:18:48.556Z,7.40
2023-03-30T04:21:17.730Z,7.30
2023-03-30T04:23:48.873Z,7.10
2023-03-30T04:26:15.914Z,7.00
2023-03-30T04:28:42.684Z,8.70
2023-03-30T04:31:13.659Z,7.20
2023-03-30T04:33:51.873Z,7.20
2023-03-30T04:36:20.138Z,7.10
2023-03-30T04:38:59.794Z,7.40
2023-03-30T04:41:29.991Z,6.40
2023-03-30T04:43:56.570Z,6.20
2023-03-30T04:46:23.245Z,7.00
2023-03-30T04:48:49.873Z,7.10
2023-03-30T04:51:17.018Z,7.20
2023-03-30T04:53:43.562Z,7.00
2023-03-30T04:56:11.578Z,7.10
2023-03-30T04:58:38.186Z,7.10
2023-03-30T05:01:04.967Z,6.60
2023-03-30T05:03:32.029Z,8.80
2023-03-30T05:05:58.772Z,7.00
2023-03-30T05:08:25.430Z,7.00
2023-03-30T05:10:52.098Z,7.30
2023-03-30T05:13:18.742Z,7.30
2023-03-30T05:15:45.343Z,7.10
2023-03-30T05:18:12.584Z,7.40
2023-03-30T05:20:39.151Z,7.30
2023-03-30T05:23:05.726Z,7.40
2023-03-30T05:25:32.346Z,7.00
2023-03-30T05:27:59.129Z,7.10
2023-03-30T05:30:26.164Z,7.40
2023-03-30T05:32:52.793Z,7.20
2023-03-30T05:35:19.456Z,7.30
2023-03-30T05:37:45.992Z,7.20
2023-03-30T05:40:12.563Z,7.40
2023-03-30T05:42:39.161Z,7.80
2023-03-30T05:45:06.100Z,7.10
2023-03-30T05:47:32.688Z,7.80
2023-03-30T05:49:59.266Z,7.20
2023-03-30T05:52:25.859Z,7.20
2023-03-30T05:54:52.408Z,6.80
2023-03-30T05:57:19.237Z,7.30
2023-03-30T05:59:45.923Z,7.30
2023-03-30T06:02:12.939Z,7.60
2023-03-30T06:04:39.665Z,7.60
2023-03-30T06:07:07.714Z,7.90
2023-03-30T06:09:34.292Z,8.00
2023-03-30T06:12:01.171Z,10.30
2023-03-30T06:14:27.753Z,7.90
2023-03-30T06:16:54.744Z,7.90
2023-03-30T06:19:21.588Z,8.40
2023-03-30T06:21:48.197Z,8.50
2023-03-30T06:24:14.958Z,9.00
2023-03-30T06:26:41.760Z,8.90
2023-03-30T06:29:08.346Z,8.20
2023-03-30T06:31:35.165Z,7.70
2023-03-30T06:34:01.751Z,8.20
2023-03-30T06:36:44.471Z,8.60
2023-03-30T06:39:12.962Z,8.40
2023-03-30T06:41:39.678Z,8.50
2023-03-30T06:44:06.739Z,8.50
2023-03-30T06:46:34.305Z,8.60
2023-03-30T06:49:01.257Z,11.10
2023-03-30T06:51:28.108Z,10.30
2023-03-30T06:53:54.667Z,8.40
2023-03-30T06:56:21.396Z,8.40
2023-03-30T06:58:48.320Z,9.50
2023-03-30T07:01:19.004Z,9.20
2023-03-30T07:03:45.714Z,9.00
2023-03-30T07:06:12.481Z,8.90
2023-03-30T07:08:40.289Z,9.40
2023-03-30T07:11:07.530Z,9.80
2023-03-30T07:13:34.422Z,9.40
2023-03-30T07:16:01.205Z,8.90
2023-03-30T07:18:27.791Z,10.60
2023-03-30T08:06:16.237Z,9.60
2023-03-30T08:08:43.466Z,9.70
2023-03-30T08:11:11.218Z,9.60
2023-03-30T08:13:38.058Z,9.40
2023-03-30T08:16:04.876Z,9.80
2023-03-30T08:18:31.661Z,9.80
2023-03-30T08:20:58.317Z,9.80
2023-03-30T08:23:24.978Z,9.80
2023-03-30T08:25:52.864Z,10.30
2023-03-30T08:28:20.184Z,9.70
2023-03-30T08:30:47.234Z,8.90
2023-03-30T08:33:14.921Z,9.70
2023-03-30T08:35:44.535Z,11.00
2023-03-30T08:38:11.147Z,9.60
2023-03-30T08:40:41.484Z,9.90
2023-03-30T08:43:25.420Z,10.10
2023-03-30T08:45:52.144Z,10.20
2023-03-30T08:48:22.856Z,9.90
2023-03-30T08:50:55.884Z,10.40
2023-03-30T08:53:22.902Z,10.60
2023-03-30T08:55:51.782Z,12.50
2023-03-30T08:58:39.926Z,9.70
2023-03-30T09:01:06.933Z,10.80
2023-03-30T09:03:39.917Z,11.00
2023-03-30T09:06:06.836Z,10.90
2023-03-30T09:08:34.108Z,10.90
2023-03-30T09:11:02.414Z,10.90
2023-03-30T09:13:32.342Z,10.80
2023-03-30T09:16:05.148Z,10.80
2023-03-30T09:18:32.925Z,11.00
2023-03-30T09:21:00.357Z,10.90
2023-03-30T09:23:29.677Z,10.90
2023-03-30T09:25:57.789Z,11.00
2023-03-30T09:28:45.957Z,11.00
2023-03-30T09:31:32.157Z,11.10
2023-03-30T09:34:06.236Z,11.10
2023-03-30T09:36:53.749Z,11.20
2023-03-30T09:39:21.801Z,11.30
2023-03-30T09:41:54.977Z,10.50
2023-03-30T09:44:41.865Z,12.40
2023-03-30T09:47:27.650Z,11.70
2023-03-30T09:50:21.089Z,11.80
2023-03-30T09:53:01.470Z,11.80
2023-03-30T09:55:29.921Z,11.90
2023-03-30T09:58:13.690Z,12.10
2023-03-30T10:00:42.005Z,12.80
2023-03-30T10:03:20.704Z,14.20
2023-03-30T10:06:10.160Z,13.70
2023-03-30T10:09:05.270Z,13.20
2023-03-30T10:11:42.509Z,13.00
2023-03-30T10:14:29.514Z,13.70
2023-03-30T10:16:57.171Z,13.30
2023-03-30T10:19:27.973Z,14.90
2023-03-30T10:22:27.890Z,13.40
2023-03-30T10:24:56.752Z,14.60
2023-03-30T10:27:39.885Z,14.40
2023-03-30T10:30:18.772Z,13.50
2023-03-30T10:32:51.837Z,13.90
2023-03-30T10:35:22.601Z,12.50
2023-03-30T10:37:54.561Z,14.60
2023-03-30T10:40:27.432Z,14.10
2023-03-30T10:42:58.193Z,13.50
2023-03-30T10:45:32.695Z,13.80
2023-03-30T10:48:09.210Z,14.00
2023-03-30T10:50:59.838Z,14.30
2023-03-30T10:53:37.655Z,14.30
2023-03-30T10:56:07.434Z,14.40
2023-03-30T10:58:36.580Z,14.50
2023-03-30T11:01:20.211Z,15.40
2023-03-30T11:03:55.458Z,14.60
2023-03-30T11:11:26.746Z,15.60
2023-03-30T11:16:34.087Z,15.80
2023-03-30T11:19:09.801Z,16.00
2023-03-30T11:21:46.723Z,15.70
2023-03-30T11:24:27.341Z,15.30
2023-03-30T11:27:24.977Z,14.50
2023-03-30T11:30:05.594Z,14.80
2023-03-30T11:33:01.665Z,14.90
2023-03-30T11:42:54.265Z,14.80
2023-03-30T11:45:34.404Z,15.80
2023-03-30T11:48:04.242Z,16.10
2023-03-30T11:51:01.743Z,16.50
2023-03-30T11:53:34.061Z,16.40
2023-03-30T11:56:25.114Z,17.30
2023-03-30T11:59:04.678Z,15.80
2023-03-30T12:02:01.509Z,15.60
2023-03-30T12:04:38.740Z,15.70
2023-03-30T12:07:12.860Z,15.40
2023-03-30T12:09:47.587Z,16.30
2023-03-30T12:12:21.224Z,17.30
2023-03-30T12:14:58.809Z,16.70
2023-03-30T12:17:39.784Z,16.10
2023-03-30T12:20:09.460Z,15.80
2023-03-30T12:22:49.750Z,15.50
2023-03-30T12:25:26.853Z,15.40
2023-03-30T12:28:03.214Z,15.80
2023-03-30T12:30:33.153Z,16.00
2023-03-30T12:33:01.665Z,15.40
2023-03-30T12:35:47.255Z,15.90
2023-03-30T12:38:20.553Z,15.10
2023-03-30T12:40:58.135Z,15.10
2023-03-30T12:43:53.534Z,15.50
2023-03-30T12:46:26.309Z,14.90
2023-03-30T12:49:00.277Z,15.60
2023-03-30T12:51:39.033Z,14.60
2023-03-30T12:54:09.044Z,14.80
2023-03-30T12:56:35.834Z,15.30
2023-03-30T13:06:48.886Z,17.80
2023-03-30T13:09:25.493Z,17.80
2023-03-30T13:11:55.105Z,16.10
2023-03-30T13:14:31.073Z,16.10
2023-03-30T13:16:57.807Z,15.70
2023-03-30T13:19:27.905Z,17.20
2023-03-30T13:22:13.219Z,16.90
2023-03-30T13:24:44.795Z,16.40
2023-03-30T13:27:14.407Z,15.30
2023-03-30T13:29:42.151Z,16.50
2023-03-30T13:32:29.055Z,16.00
2023-03-30T13:35:14.654Z,17.70
2023-03-30T13:40:12.087Z,18.70
2023-03-30T13:42:52.555Z,18.40
2023-03-30T13:45:31.422Z,18.50
2023-03-30T13:48:18.503Z,19.20
2023-03-30T13:53:16.104Z,18.70
2023-03-30T13:55:44.722Z,18.90
2023-03-30T13:58:17.557Z,19.30
2023-03-30T14:00:50.189Z,17.40
2023-03-30T14:08:12.506Z,19.90
2023-03-30T14:10:39.177Z,20.60
2023-03-30T14:13:10.002Z,19.20
2023-03-30T14:15:37.270Z,17.70
2023-03-30T14:18:05.479Z,20.40
2023-03-30T14:20:46.716Z,18.30
2023-03-30T14:23:16.417Z,17.50
2023-03-30T14:25:43.085Z,17.00
2023-03-30T14:28:17.309Z,18.10
2023-03-30T14:30:57.400Z,18.40
2023-03-30T14:33:24.490Z,16.70
2023-03-30T15:39:47.807Z,15.40
2023-03-30T15:57:13.546Z,14.70
2023-03-30T15:59:48.347Z,13.80
2023-03-30T16:02:34.637Z,13.20
2023-03-30T16:05:45.979Z,12.90
2023-03-30T16:08:56.466Z,12.40
2023-03-30T16:20:49.885Z,10.90
2023-03-30T16:23:18.014Z,13.30
2023-03-30T16:25:47.136Z,11.80
2023-03-30T16:29:23.413Z,12.50
2023-03-30T16:31:36.068Z,12.40
2023-03-30T16:34:47.284Z,13.20
2023-03-30T16:39:57.160Z,11.90
2023-03-30T18:19:16.631Z,10.30
2023-03-30T18:29:01.234Z,10.40
2023-03-30T18:42:27.901Z,10.30
2023-03-30T20:03:31.269Z,8.70
2023-03-30T20:45:11.687Z,9.00
2023-03-30T21:05:26.111Z,9.00
2023-03-30T21:07:55.158Z,9.00
2023-03-30T21:10:21.832Z,8.90
2023-03-30T21:12:48.548Z,10.10
2023-03-30T21:15:15.472Z,9.80
2023-03-30T21:17:42.226Z,8.70
2023-03-30T21:20:10.810Z,9.70
2023-03-30T21:22:37.652Z,8.60
2023-03-30T21:25:04.546Z,8.40
2023-03-30T21:27:31.535Z,8.70
2023-03-30T21:29:58.313Z,9.40
2023-03-30T21:32:25.045Z,9.30
2023-03-30T21:34:51.890Z,8.20
2023-03-30T21:37:18.933Z,8.60
2023-03-30T21:39:46.444Z,9.50
2023-03-30T21:42:15.888Z,9.80
2023-03-30T21:44:42.541Z,8.50
2023-03-30T21:47:16.739Z,9.30
2023-03-30T21:49:43.532Z,8.80
2023-03-30T21:52:10.298Z,8.40
2023-03-30T21:54:37.101Z,8.30
2023-03-30T21:57:04.777Z,9.00
2023-03-30T21:59:31.556Z,8.60
2023-03-30T22:01:58.331Z,8.70
2023-03-30T22:04:25.108Z,9.40
2023-03-30T22:06:54.240Z,7.90
2023-03-30T22:09:20.959Z,9.70
2023-03-30T22:11:47.821Z,9.50
2023-03-30T22:14:14.533Z,9.50
2023-03-30T22:16:42.932Z,9.40
2023-03-30T22:19:09.754Z,9.40
2023-03-30T22:21:37.332Z,9.40
2023-03-30T22:24:05.602Z,9.20
2023-03-30T22:26:32.948Z,8.90
2023-03-30T22:28:59.884Z,10.20
2023-03-30T22:31:27.688Z,8.30
2023-03-30T22:33:55.122Z,10.10
2023-03-30T22:36:23.341Z,8.10
2023-03-30T22:38:50.850Z,10.30
2023-03-30T22:41:18.846Z,7.90
2023-03-30T22:43:45.630Z,9.70
2023-03-30T22:46:12.383Z,9.20
2023-03-30T22:48:41.568Z,8.00
2023-03-30T22:51:14.358Z,9.40
2023-03-30T22:53:41.266Z,8.70
2023-03-30T22:56:08.213Z,8.60
2023-03-30T22:58:35.980Z,9.60
2023-03-30T23:01:03.269Z,9.60
2023-03-30T23:03:30.150Z,8.30
2023-03-30T23:06:02.678Z,9.60
2023-03-30T23:08:29.967Z,8.30
2023-03-30T23:10:57.348Z,8.50
2023-03-30T23:13:24.080Z,8.50
2023-03-30T23:15:50.750Z,9.50
2023-03-30T23:18:17.384Z,9.80
2023-03-30T23:20:46.742Z,8.40
2023-03-30T23:23:14.135Z,8.40
2023-03-30T23:25:44.108Z,8.40
2023-03-30T23:28:10.773Z,8.70
2023-03-30T23:30:37.501Z,8.30
2023-03-30T23:33:04.208Z,8.40
2023-03-30T23:35:31.176Z,8.60
2023-03-30T23:37:57.878Z,10.40
2023-03-30T23:40:24.610Z,8.80
2023-03-30T23:42:51.372Z,8.90
2023-03-30T23:45:18.052Z,10.00
2023-03-30T23:47:44.738Z,8.90
2023-03-30T23:50:11.463Z,9.70
2023-03-30T23:52:38.068Z,9.10
2023-03-30T23:55:04.798Z,8.40
2023-03-30T23:57:31.451Z,8.70
2023-03-30T23:59:58.176Z,8.50
